sensor_id;sensor_type;location;lat;lon;timestamp;pressure;altitude;pressure_sealevel;temperature;humidity
48652;BME280;34442;52.362;-1.302;2023-02-13T00:01:59;102178.13;;;7.96;100.00
48652;BME280;34442;52.362;-1.302;2023-02-13T00:04:25;102171.94;;;7.96;100.00
48652;BME280;34442;52.362;-1.302;2023-02-13T00:06:50;102171.09;;;7.95;100.00
48652;BME280;34442;52.362;-1.302;2023-02-13T00:09:15;102177.56;;;7.93;100.00
48652;BME280;34442;52.362;-1.302;2023-02-13T00:11:41;102182.94;;;7.93;100.00
48652;BME280;34442;52.362;-1.302;2023-02-13T00:14:06;102178.28;;;7.95;100.00
48652;BME280;34442;52.362;-1.302;2023-02-13T00:16:32;102181.53;;;7.89;100.00
48652;BME280;34442;52.362;-1.302;2023-02-13T00:18:58;102176.31;;;7.87;100.00
48652;BME280;34442;52.362;-1.302;2023-02-13T00:21:23;102180.69;;;7.88;100.00
48652;BME280;34442;52.362;-1.302;2023-02-13T00:23:48;102177.84;;;7.90;100.00
48652;BME280;34442;52.362;-1.302;2023-02-13T00:26:15;102175.59;;;7.95;100.00
48652;BME280;34442;52.362;-1.302;2023-02-13T00:28:41;102174.34;;;7.89;100.00
48652;BME280;34442;52.362;-1.302;2023-02-13T00:31:09;102168.69;;;7.92;100.00
48652;BME280;34442;52.362;-1.302;2023-02-13T00:33:35;102164.19;;;7.93;100.00
48652;BME280;34442;52.362;-1.302;2023-02-13T00:36:05;102163.78;;;7.88;100.00
48652;BME280;34442;52.362;-1.302;2023-02-13T00:38:31;102164.91;;;7.85;100.00
48652;BME280;34442;52.362;-1.302;2023-02-13T00:40:56;102168.56;;;7.84;100.00
48652;BME280;34442;52.362;-1.302;2023-02-13T00:43:21;102167.13;;;7.90;100.00
48652;BME280;34442;52.362;-1.302;2023-02-13T00:45:47;102167.69;;;7.93;100.00
48652;BME280;34442;52.362;-1.302;2023-02-13T00:48:12;102165.13;;;8.02;100.00
48652;BME280;34442;52.362;-1.302;2023-02-13T00:50:38;102165.13;;;8.02;100.00
48652;BME280;34442;52.362;-1.302;2023-02-13T00:53:03;102159.94;;;8.00;100.00
48652;BME280;34442;52.362;-1.302;2023-02-13T00:55:29;102158.09;;;8.01;100.00
48652;BME280;34442;52.362;-1.302;2023-02-13T00:57:54;102155.69;;;7.97;100.00
48652;BME280;34442;52.362;-1.302;2023-02-13T01:00:20;102156.25;;;8.01;100.00
48652;BME280;34442;52.362;-1.302;2023-02-13T01:02:45;102146.16;;;7.95;100.00
48652;BME280;34442;52.362;-1.302;2023-02-13T01:05:12;102142.19;;;7.99;100.00
48652;BME280;34442;52.362;-1.302;2023-02-13T01:07:38;102147.53;;;7.99;100.00
48652;BME280;34442;52.362;-1.302;2023-02-13T01:10:04;102147.00;;;7.95;100.00
48652;BME280;34442;52.362;-1.302;2023-02-13T01:12:29;102139.25;;;7.92;100.00
48652;BME280;34442;52.362;-1.302;2023-02-13T01:14:55;102136.56;;;7.92;100.00
48652;BME280;34442;52.362;-1.302;2023-02-13T01:17:20;102140.53;;;7.88;100.00
48652;BME280;34442;52.362;-1.302;2023-02-13T01:19:45;102132.66;;;7.87;100.00
48652;BME280;34442;52.362;-1.302;2023-02-13T01:22:11;102124.28;;;7.90;100.00
48652;BME280;34442;52.362;-1.302;2023-02-13T01:24:36;102125.84;;;7.92;100.00
48652;BME280;34442;52.362;-1.302;2023-02-13T01:27:02;102136.72;;;7.91;100.00
48652;BME280;34442;52.362;-1.302;2023-02-13T01:29:28;102134.16;;;7.89;100.00
48652;BME280;34442;52.362;-1.302;2023-02-13T01:31:53;102138.69;;;7.89;100.00
48652;BME280;34442;52.362;-1.302;2023-02-13T01:34:19;102124.75;;;7.85;100.00
48652;BME280;34442;52.362;-1.302;2023-02-13T01:36:44;102124.59;;;7.87;100.00
48652;BME280;34442;52.362;-1.302;2023-02-13T01:39:10;102127.13;;;7.88;100.00
48652;BME280;34442;52.362;-1.302;2023-02-13T01:41:36;102124.16;;;7.91;100.00
48652;BME280;34442;52.362;-1.302;2023-02-13T01:44:02;102131.94;;;7.85;100.00
48652;BME280;34442;52.362;-1.302;2023-02-13T01:46:48;102130.41;;;7.82;100.00
48652;BME280;34442;52.362;-1.302;2023-02-13T01:49:18;102127.41;;;7.85;100.00
48652;BME280;34442;52.362;-1.302;2023-02-13T01:51:46;102127.13;;;7.88;100.00
48652;BME280;34442;52.362;-1.302;2023-02-13T01:54:20;102122.38;;;7.82;100.00
48652;BME280;34442;52.362;-1.302;2023-02-13T01:56:52;102119.81;;;7.81;100.00
48652;BME280;34442;52.362;-1.302;2023-02-13T01:59:24;102124.50;;;7.79;100.00
48652;BME280;34442;52.362;-1.302;2023-02-13T02:01:51;102123.34;;;7.81;100.00
48652;BME280;34442;52.362;-1.302;2023-02-13T02:04:21;102121.94;;;7.77;100.00
48652;BME280;34442;52.362;-1.302;2023-02-13T02:06:50;102118.69;;;7.83;100.00
48652;BME280;34442;52.362;-1.302;2023-02-13T02:09:21;102115.88;;;7.85;100.00
48652;BME280;34442;52.362;-1.302;2023-02-13T02:12:40;102122.06;;;7.85;100.00
48652;BME280;34442;52.362;-1.302;2023-02-13T02:14:40;102115.63;;;7.78;100.00
48652;BME280;34442;52.362;-1.302;2023-02-13T02:17:06;102116.19;;;7.82;100.00
48652;BME280;34442;52.362;-1.302;2023-02-13T02:19:43;102109.28;;;7.79;100.00
48652;BME280;34442;52.362;-1.302;2023-02-13T02:35:12;102118.44;;;7.77;100.00
48652;BME280;34442;52.362;-1.302;2023-02-13T02:41:22;102103.06;;;7.79;100.00
48652;BME280;34442;52.362;-1.302;2023-02-13T02:49:50;102095.88;;;7.79;100.00
48652;BME280;34442;52.362;-1.302;2023-02-13T02:52:30;102093.94;;;7.71;100.00
48652;BME280;34442;52.362;-1.302;2023-02-13T02:55:06;102087.84;;;7.79;100.00
48652;BME280;34442;52.362;-1.302;2023-02-13T02:57:41;102092.50;;;7.77;100.00
48652;BME280;34442;52.362;-1.302;2023-02-13T03:00:30;102086.63;;;7.74;100.00
48652;BME280;34442;52.362;-1.302;2023-02-13T03:03:19;102085.63;;;7.75;100.00
48652;BME280;34442;52.362;-1.302;2023-02-13T03:06:10;102092.91;;;7.82;100.00
48652;BME280;34442;52.362;-1.302;2023-02-13T03:08:40;102086.19;;;7.78;100.00
48652;BME280;34442;52.362;-1.302;2023-02-13T03:11:25;102083.50;;;7.78;100.00
48652;BME280;34442;52.362;-1.302;2023-02-13T03:14:26;102091.53;;;7.78;100.00
48652;BME280;34442;52.362;-1.302;2023-02-13T03:16:52;102089.13;;;7.75;100.00
48652;BME280;34442;52.362;-1.302;2023-02-13T03:19:40;102091.53;;;7.78;100.00
48652;BME280;34442;52.362;-1.302;2023-02-13T03:25:35;102082.06;;;7.84;100.00
48652;BME280;34442;52.362;-1.302;2023-02-13T03:34:03;102086.00;;;7.80;100.00
48652;BME280;34442;52.362;-1.302;2023-02-13T03:36:42;102075.75;;;7.75;100.00
48652;BME280;34442;52.362;-1.302;2023-02-13T03:42:25;102077.81;;;7.81;100.00
48652;BME280;34442;52.362;-1.302;2023-02-13T03:44:55;102078.88;;;7.70;100.00
48652;BME280;34442;52.362;-1.302;2023-02-13T03:47:43;102082.78;;;7.76;100.00
48652;BME280;34442;52.362;-1.302;2023-02-13T03:50:10;102078.28;;;7.77;100.00
48652;BME280;34442;52.362;-1.302;2023-02-13T03:52:48;102081.25;;;7.74;100.00
48652;BME280;34442;52.362;-1.302;2023-02-13T03:55:29;102076.59;;;7.76;100.00
48652;BME280;34442;52.362;-1.302;2023-02-13T03:58:20;102078.97;;;7.79;100.00
48652;BME280;34442;52.362;-1.302;2023-02-13T04:01:07;102076.44;;;7.77;100.00
48652;BME280;34442;52.362;-1.302;2023-02-13T04:03:44;102073.06;;;7.75;100.00
48652;BME280;34442;52.362;-1.302;2023-02-13T04:06:24;102078.16;;;7.78;100.00
48652;BME280;34442;52.362;-1.302;2023-02-13T04:08:51;102071.78;;;7.79;100.00
48652;BME280;34442;52.362;-1.302;2023-02-13T04:11:24;102079.97;;;7.78;100.00
48652;BME280;34442;52.362;-1.302;2023-02-13T04:14:06;102069.28;;;7.78;100.00
48652;BME280;34442;52.362;-1.302;2023-02-13T04:16:41;102073.91;;;7.76;100.00
48652;BME280;34442;52.362;-1.302;2023-02-13T04:19:09;102077.72;;;7.73;100.00
48652;BME280;34442;52.362;-1.302;2023-02-13T04:21:36;102071.06;;;7.77;100.00
48652;BME280;34442;52.362;-1.302;2023-02-13T04:24:02;102077.03;;;7.71;100.00
48652;BME280;34442;52.362;-1.302;2023-02-13T04:26:34;102073.94;;;7.66;100.00
48652;BME280;34442;52.362;-1.302;2023-02-13T04:29:00;102068.28;;;7.69;100.00
48652;BME280;34442;52.362;-1.302;2023-02-13T04:31:26;102064.38;;;7.63;100.00
48652;BME280;34442;52.362;-1.302;2023-02-13T04:33:51;102058.44;;;7.69;100.00
48652;BME280;34442;52.362;-1.302;2023-02-13T04:36:16;102057.91;;;7.66;100.00
48652;BME280;34442;52.362;-1.302;2023-02-13T04:38:42;102059.84;;;7.64;100.00
48652;BME280;34442;52.362;-1.302;2023-02-13T04:41:07;102053.94;;;7.60;100.00
48652;BME280;34442;52.362;-1.302;2023-02-13T04:43:33;102058.56;;;7.68;100.00
48652;BME280;34442;52.362;-1.302;2023-02-13T04:45:58;102061.25;;;7.68;100.00
48652;BME280;34442;52.362;-1.302;2023-02-13T04:48:23;102057.91;;;7.66;100.00
48652;BME280;34442;52.362;-1.302;2023-02-13T04:50:49;102060.41;;;7.67;100.00
48652;BME280;34442;52.362;-1.302;2023-02-13T04:53:14;102059.41;;;7.68;100.00
48652;BME280;34442;52.362;-1.302;2023-02-13T04:55:39;102063.25;;;7.66;100.00
48652;BME280;34442;52.362;-1.302;2023-02-13T04:58:05;102055.22;;;7.66;100.00
48652;BME280;34442;52.362;-1.302;2023-02-13T05:00:30;102054.06;;;7.68;100.00
48652;BME280;34442;52.362;-1.302;2023-02-13T05:03:06;102046.19;;;7.67;100.00
48652;BME280;34442;52.362;-1.302;2023-02-13T05:05:32;102053.38;;;7.66;100.00
48652;BME280;34442;52.362;-1.302;2023-02-13T05:07:57;102047.75;;;7.60;100.00
48652;BME280;34442;52.362;-1.302;2023-02-13T05:10:23;102046.75;;;7.61;100.00
48652;BME280;34442;52.362;-1.302;2023-02-13T05:12:48;102051.81;;;7.64;100.00
48652;BME280;34442;52.362;-1.302;2023-02-13T05:15:14;102047.06;;;7.58;100.00
48652;BME280;34442;52.362;-1.302;2023-02-13T05:17:42;102044.84;;;7.53;100.00
48652;BME280;34442;52.362;-1.302;2023-02-13T05:20:08;102053.16;;;7.40;100.00
48652;BME280;34442;52.362;-1.302;2023-02-13T05:22:34;102046.97;;;7.50;100.00
48652;BME280;34442;52.362;-1.302;2023-02-13T05:25:17;102049.31;;;7.53;100.00
48652;BME280;34442;52.362;-1.302;2023-02-13T05:27:43;102048.34;;;7.54;100.00
48652;BME280;34442;52.362;-1.302;2023-02-13T05:30:09;102044.41;;;7.48;100.00
48652;BME280;34442;52.362;-1.302;2023-02-13T05:32:34;102049.31;;;7.53;100.00
48652;BME280;34442;52.362;-1.302;2023-02-13T05:34:59;102045.13;;;7.50;100.00
48652;BME280;34442;52.362;-1.302;2023-02-13T05:37:25;102043.84;;;7.54;100.00
48652;BME280;34442;52.362;-1.302;2023-02-13T05:39:50;102052.72;;;7.55;100.00
48652;BME280;34442;52.362;-1.302;2023-02-13T05:42:16;102045.84;;;7.42;100.00
48652;BME280;34442;52.362;-1.302;2023-02-13T05:44:41;102047.78;;;7.50;100.00
48652;BME280;34442;52.362;-1.302;2023-02-13T05:47:07;102054.56;;;7.44;100.00
48652;BME280;34442;52.362;-1.302;2023-02-13T05:49:32;102050.47;;;7.50;100.00
48652;BME280;34442;52.362;-1.302;2023-02-13T05:51:57;102060.34;;;7.50;100.00
48652;BME280;34442;52.362;-1.302;2023-02-13T05:54:23;102064.13;;;7.47;100.00
48652;BME280;34442;52.362;-1.302;2023-02-13T05:56:48;102070.31;;;7.47;100.00
48652;BME280;34442;52.362;-1.302;2023-02-13T05:59:13;102066.53;;;7.50;100.00
48652;BME280;34442;52.362;-1.302;2023-02-13T06:01:39;102063.13;;;7.48;100.00
48652;BME280;34442;52.362;-1.302;2023-02-13T06:04:04;102055.56;;;7.43;100.00
48652;BME280;34442;52.362;-1.302;2023-02-13T06:06:29;102058.22;;;7.43;100.00
48652;BME280;34442;52.362;-1.302;2023-02-13T06:08:55;102055.97;;;7.39;100.00
48652;BME280;34442;52.362;-1.302;2023-02-13T06:11:21;102048.97;;;7.28;100.00
48652;BME280;34442;52.362;-1.302;2023-02-13T06:13:46;102054.91;;;7.22;100.00
48652;BME280;34442;52.362;-1.302;2023-02-13T06:16:12;102057.28;;;7.25;100.00
48652;BME280;34442;52.362;-1.302;2023-02-13T06:18:38;102058.69;;;7.19;100.00
48652;BME280;34442;52.362;-1.302;2023-02-13T06:21:05;102049.69;;;7.20;100.00
48652;BME280;34442;52.362;-1.302;2023-02-13T06:23:30;102053.50;;;7.18;100.00
48652;BME280;34442;52.362;-1.302;2023-02-13T06:26:00;102059.00;;;7.16;100.00
48652;BME280;34442;52.362;-1.302;2023-02-13T06:28:25;102066.88;;;7.18;100.00
48652;BME280;34442;52.362;-1.302;2023-02-13T06:30:51;102062.63;;;7.25;100.00
48652;BME280;34442;52.362;-1.302;2023-02-13T06:33:16;102056.16;;;7.28;100.00
48652;BME280;34442;52.362;-1.302;2023-02-13T06:35:44;102062.34;;;7.28;100.00
48652;BME280;34442;52.362;-1.302;2023-02-13T06:38:09;102062.47;;;7.27;100.00
48652;BME280;34442;52.362;-1.302;2023-02-13T06:40:34;102057.97;;;7.27;100.00
48652;BME280;34442;52.362;-1.302;2023-02-13T06:43:00;102050.22;;;7.24;100.00
48652;BME280;34442;52.362;-1.302;2023-02-13T06:45:25;102056.84;;;7.20;100.00
48652;BME280;34442;52.362;-1.302;2023-02-13T06:47:51;102058.41;;;7.22;100.00
48652;BME280;34442;52.362;-1.302;2023-02-13T06:50:16;102060.09;;;7.24;100.00
48652;BME280;34442;52.362;-1.302;2023-02-13T06:52:49;102056.28;;;7.26;100.00
48652;BME280;34442;52.362;-1.302;2023-02-13T06:55:16;102063.34;;;7.17;100.00
48652;BME280;34442;52.362;-1.302;2023-02-13T06:57:43;102068.69;;;7.17;100.00
48652;BME280;34442;52.362;-1.302;2023-02-13T07:00:09;102067.44;;;7.21;100.00
48652;BME280;34442;52.362;-1.302;2023-02-13T07:02:41;102065.75;;;7.20;100.00
48652;BME280;34442;52.362;-1.302;2023-02-13T07:05:07;102065.59;;;7.22;100.00
48652;BME280;34442;52.362;-1.302;2023-02-13T07:07:37;102072.19;;;7.28;100.00
48652;BME280;34442;52.362;-1.302;2023-02-13T07:10:04;102068.13;;;7.24;100.00
48652;BME280;34442;52.362;-1.302;2023-02-13T07:12:34;102067.28;;;7.23;100.00
48652;BME280;34442;52.362;-1.302;2023-02-13T07:15:01;102079.66;;;7.24;100.00
48652;BME280;34442;52.362;-1.302;2023-02-13T07:17:27;102072.06;;;7.19;100.00
48652;BME280;34442;52.362;-1.302;2023-02-13T07:19:52;102064.03;;;7.19;100.00
48652;BME280;34442;52.362;-1.302;2023-02-13T07:22:18;102065.47;;;7.04;100.00
48652;BME280;34442;52.362;-1.302;2023-02-13T07:24:43;102064.91;;;7.10;100.00
48652;BME280;34442;52.362;-1.302;2023-02-13T07:27:09;102063.38;;;7.08;100.00
48652;BME280;34442;52.362;-1.302;2023-02-13T07:29:34;102058.03;;;7.08;100.00
48652;BME280;34442;52.362;-1.302;2023-02-13T07:32:00;102045.63;;;7.07;100.00
48652;BME280;34442;52.362;-1.302;2023-02-13T07:34:25;102048.44;;;7.05;100.00
48652;BME280;34442;52.362;-1.302;2023-02-13T07:36:51;102056.19;;;7.08;100.00
48652;BME280;34442;52.362;-1.302;2023-02-13T07:39:16;102054.34;;;7.09;100.00
48652;BME280;34442;52.362;-1.302;2023-02-13T07:41:41;102048.16;;;7.08;100.00
48652;BME280;34442;52.362;-1.302;2023-02-13T07:44:07;102054.63;;;7.06;100.00
48652;BME280;34442;52.362;-1.302;2023-02-13T07:46:32;102052.81;;;7.06;100.00
48652;BME280;34442;52.362;-1.302;2023-02-13T07:48:58;102054.47;;;7.07;100.00
48652;BME280;34442;52.362;-1.302;2023-02-13T07:51:23;102053.66;;;6.97;100.00
48652;BME280;34442;52.362;-1.302;2023-02-13T07:53:52;102054.78;;;6.94;100.00
48652;BME280;34442;52.362;-1.302;2023-02-13T07:56:18;102051.41;;;7.02;100.00
48652;BME280;34442;52.362;-1.302;2023-02-13T07:58:44;102049.00;;;7.09;100.00
48652;BME280;34442;52.362;-1.302;2023-02-13T08:01:11;102055.03;;;7.11;100.00
48652;BME280;34442;52.362;-1.302;2023-02-13T08:03:37;102060.13;;;7.14;100.00
48652;BME280;34442;52.362;-1.302;2023-02-13T08:06:03;102049.84;;;7.09;100.00
48652;BME280;34442;52.362;-1.302;2023-02-13T08:08:29;102053.53;;;7.08;100.00
48652;BME280;34442;52.362;-1.302;2023-02-13T08:10:54;102052.69;;;7.08;100.00
48652;BME280;34442;52.362;-1.302;2023-02-13T08:13:40;102055.75;;;7.13;100.00
48652;BME280;34442;52.362;-1.302;2023-02-13T08:16:05;102050.53;;;7.11;100.00
48652;BME280;34442;52.362;-1.302;2023-02-13T08:18:31;102050.13;;;7.16;100.00
48652;BME280;34442;52.362;-1.302;2023-02-13T08:20:56;102047.59;;;7.14;100.00
48652;BME280;34442;52.362;-1.302;2023-02-13T08:23:22;102047.75;;;7.13;100.00
48652;BME280;34442;52.362;-1.302;2023-02-13T08:25:47;102058.56;;;7.11;100.00
48652;BME280;34442;52.362;-1.302;2023-02-13T08:28:14;102052.25;;;7.12;100.00
48652;BME280;34442;52.362;-1.302;2023-02-13T08:30:40;102059.28;;;7.13;100.00
48652;BME280;34442;52.362;-1.302;2023-02-13T08:33:05;102063.19;;;7.19;100.00
48652;BME280;34442;52.362;-1.302;2023-02-13T08:35:31;102060.69;;;7.08;100.00
48652;BME280;34442;52.362;-1.302;2023-02-13T08:38:00;102060.94;;;7.14;100.00
48652;BME280;34442;52.362;-1.302;2023-02-13T08:40:26;102055.06;;;7.20;100.00
48652;BME280;34442;52.362;-1.302;2023-02-13T08:42:51;102054.75;;;7.14;100.00
48652;BME280;34442;52.362;-1.302;2023-02-13T08:45:17;102056.59;;;7.13;100.00
48652;BME280;34442;52.362;-1.302;2023-02-13T08:47:42;102047.47;;;7.16;100.00
48652;BME280;34442;52.362;-1.302;2023-02-13T08:50:08;102050.13;;;7.16;100.00
48652;BME280;34442;52.362;-1.302;2023-02-13T08:52:34;102047.88;;;7.21;100.00
48652;BME280;34442;52.362;-1.302;2023-02-13T08:54:59;102051.22;;;7.23;100.00
48652;BME280;34442;52.362;-1.302;2023-02-13T08:57:24;102049.81;;;7.19;100.00
48652;BME280;34442;52.362;-1.302;2023-02-13T08:59:50;102056.31;;;7.16;100.00
48652;BME280;34442;52.362;-1.302;2023-02-13T09:02:15;102052.09;;;7.14;100.00
48652;BME280;34442;52.362;-1.302;2023-02-13T09:04:41;102045.94;;;7.04;100.00
48652;BME280;34442;52.362;-1.302;2023-02-13T09:07:06;102055.47;;;7.06;100.00
48652;BME280;34442;52.362;-1.302;2023-02-13T09:09:31;102049.56;;;7.03;100.00
48652;BME280;34442;52.362;-1.302;2023-02-13T09:11:57;102048.72;;;7.12;100.00
48652;BME280;34442;52.362;-1.302;2023-02-13T09:14:26;102056.16;;;7.18;100.00
48652;BME280;34442;52.362;-1.302;2023-02-13T09:16:51;102048.72;;;7.12;100.00
48652;BME280;34442;52.362;-1.302;2023-02-13T09:19:17;102047.03;;;7.20;100.00
48652;BME280;34442;52.362;-1.302;2023-02-13T09:21:42;102050.66;;;7.19;100.00
48652;BME280;34442;52.362;-1.302;2023-02-13T09:24:09;102051.94;;;7.15;100.00
48652;BME280;34442;52.362;-1.302;2023-02-13T09:26:34;102047.16;;;7.19;100.00
48652;BME280;34442;52.362;-1.302;2023-02-13T09:29:03;102049.66;;;7.30;100.00
48652;BME280;34442;52.362;-1.302;2023-02-13T09:31:28;102048.97;;;7.28;100.00
48652;BME280;34442;52.362;-1.302;2023-02-13T09:33:54;102048.13;;;7.37;100.00
48652;BME280;34442;52.362;-1.302;2023-02-13T09:36:21;102043.72;;;7.36;100.00
48652;BME280;34442;52.362;-1.302;2023-02-13T09:38:53;102048.97;;;7.28;100.00
48652;BME280;34442;52.362;-1.302;2023-02-13T09:41:25;102042.50;;;7.31;100.00
48652;BME280;34442;52.362;-1.302;2023-02-13T09:46:32;102043.91;;;7.25;100.00
48652;BME280;34442;52.362;-1.302;2023-02-13T09:49:21;102041.22;;;7.35;100.00
48652;BME280;34442;52.362;-1.302;2023-02-13T09:51:52;102041.28;;;7.53;100.00
48652;BME280;34442;52.362;-1.302;2023-02-13T09:54:20;102034.16;;;7.43;100.00
48652;BME280;34442;52.362;-1.302;2023-02-13T10:02:52;102034.94;;;7.63;100.00
48652;BME280;34442;52.362;-1.302;2023-02-13T10:08:11;102036.16;;;7.69;100.00
48652;BME280;34442;52.362;-1.302;2023-02-13T10:10:54;102022.47;;;7.82;100.00
48652;BME280;34442;52.362;-1.302;2023-02-13T10:16:26;102029.25;;;7.76;100.00
48652;BME280;34442;52.362;-1.302;2023-02-13T10:18:56;102031.78;;;7.78;100.00
48652;BME280;34442;52.362;-1.302;2023-02-13T10:21:37;102040.78;;;7.77;100.00
48652;BME280;34442;52.362;-1.302;2023-02-13T10:24:10;102032.19;;;7.73;100.00
48652;BME280;34442;52.362;-1.302;2023-02-13T10:26:41;102037.22;;;7.58;100.00
48652;BME280;34442;52.362;-1.302;2023-02-13T10:31:59;102037.28;;;7.76;100.00
48652;BME280;34442;52.362;-1.302;2023-02-13T10:34:28;102037.22;;;7.86;100.00
48652;BME280;34442;52.362;-1.302;2023-02-13T10:36:56;102038.59;;;7.90;100.00
48652;BME280;34442;52.362;-1.302;2023-02-13T10:39:29;102029.06;;;7.87;100.00
48652;BME280;34442;52.362;-1.302;2023-02-13T11:01:01;102024.84;;;8.12;100.00
48652;BME280;34442;52.362;-1.302;2023-02-13T11:03:29;102028.84;;;8.26;100.00
48652;BME280;34442;52.362;-1.302;2023-02-13T11:05:57;102019.03;;;8.44;100.00
48652;BME280;34442;52.362;-1.302;2023-02-13T11:08:31;102025.91;;;8.47;100.00
48652;BME280;34442;52.362;-1.302;2023-02-13T11:10:59;102026.81;;;8.56;100.00
48652;BME280;34442;52.362;-1.302;2023-02-13T11:13:28;102023.09;;;8.66;100.00
48652;BME280;34442;52.362;-1.302;2023-02-13T11:16:07;102016.59;;;8.69;100.00
48652;BME280;34442;52.362;-1.302;2023-02-13T11:18:40;102014.66;;;8.79;100.00
48652;BME280;34442;52.362;-1.302;2023-02-13T11:21:21;102008.16;;;8.82;100.00
48652;BME280;34442;52.362;-1.302;2023-02-13T11:23:52;102013.63;;;8.80;100.00
48652;BME280;34442;52.362;-1.302;2023-02-13T11:26:30;102006.47;;;8.81;100.00
48652;BME280;34442;52.362;-1.302;2023-02-13T11:28:59;102005.00;;;8.86;100.00
48652;BME280;34442;52.362;-1.302;2023-02-13T11:31:36;102010.91;;;8.90;100.00
48652;BME280;34442;52.362;-1.302;2023-02-13T11:34:37;102006.66;;;9.05;100.00
48652;BME280;34442;52.362;-1.302;2023-02-13T11:39:38;101994.94;;;9.06;100.00
48652;BME280;34442;52.362;-1.302;2023-02-13T11:42:16;101988.72;;;9.06;100.00
48652;BME280;34442;52.362;-1.302;2023-02-13T11:44:48;101990.09;;;8.92;100.00
48652;BME280;34442;52.362;-1.302;2023-02-13T11:47:14;101984.00;;;8.64;100.00
48652;BME280;34442;52.362;-1.302;2023-02-13T11:49:45;101983.72;;;8.49;100.00
48652;BME280;34442;52.362;-1.302;2023-02-13T11:52:32;101977.66;;;8.47;100.00
48652;BME280;34442;52.362;-1.302;2023-02-13T11:55:01;101978.75;;;8.54;100.00
48652;BME280;34442;52.362;-1.302;2023-02-13T11:57:34;101979.84;;;8.43;100.00
48652;BME280;34442;52.362;-1.302;2023-02-13T12:00:34;101975.88;;;8.56;100.00
48652;BME280;34442;52.362;-1.302;2023-02-13T12:06:00;101965.88;;;8.58;100.00
48652;BME280;34442;52.362;-1.302;2023-02-13T12:08:28;101972.16;;;8.66;100.00
48652;BME280;34442;52.362;-1.302;2023-02-13T12:10:55;101969.69;;;8.73;100.00
48652;BME280;34442;52.362;-1.302;2023-02-13T12:13:28;101972.69;;;8.70;100.00
48652;BME280;34442;52.362;-1.302;2023-02-13T12:15:59;101968.16;;;8.70;100.00
48652;BME280;34442;52.362;-1.302;2023-02-13T12:18:48;101969.41;;;8.58;100.00
48652;BME280;34442;52.362;-1.302;2023-02-13T12:41:28;101956.00;;;9.02;100.00
48652;BME280;34442;52.362;-1.302;2023-02-13T12:46:36;101950.88;;;8.91;100.00
48652;BME280;34442;52.362;-1.302;2023-02-13T12:52:21;101937.13;;;8.86;100.00
48652;BME280;34442;52.362;-1.302;2023-02-13T12:56:00;101936.09;;;8.87;100.00
48652;BME280;34442;52.362;-1.302;2023-02-13T13:03:32;101927.94;;;8.97;100.00
48652;BME280;34442;52.362;-1.302;2023-02-13T13:22:18;101907.44;;;8.87;100.00
48652;BME280;34442;52.362;-1.302;2023-02-13T13:25:09;101913.50;;;8.89;100.00
48652;BME280;34442;52.362;-1.302;2023-02-13T13:27:43;101912.19;;;8.93;100.00
48652;BME280;34442;52.362;-1.302;2023-02-13T13:30:26;101901.94;;;8.89;100.00
48652;BME280;34442;52.362;-1.302;2023-02-13T13:33:19;101894.72;;;8.89;100.00
48652;BME280;34442;52.362;-1.302;2023-02-13T13:36:05;101895.41;;;8.91;100.00
48652;BME280;34442;52.362;-1.302;2023-02-13T13:41:22;101894.09;;;8.95;100.00
48652;BME280;34442;52.362;-1.302;2023-02-13T13:51:41;101877.69;;;8.99;100.00
48652;BME280;34442;52.362;-1.302;2023-02-13T14:05:00;101878.03;;;9.04;100.00
48652;BME280;34442;52.362;-1.302;2023-02-13T14:07:36;101866.47;;;9.03;100.00
48652;BME280;34442;52.362;-1.302;2023-02-13T14:10:03;101857.41;;;9.04;100.00
48652;BME280;34442;52.362;-1.302;2023-02-13T14:14:58;101858.13;;;9.06;100.00
48652;BME280;34442;52.362;-1.302;2023-02-13T14:22:55;101851.56;;;9.09;100.00
48652;BME280;34442;52.362;-1.302;2023-02-13T14:25:23;101848.44;;;9.13;100.00
48652;BME280;34442;52.362;-1.302;2023-02-13T14:28:00;101846.19;;;9.09;100.00
48652;BME280;34442;52.362;-1.302;2023-02-13T14:30:45;101845.06;;;9.11;100.00
48652;BME280;34442;52.362;-1.302;2023-02-13T14:33:26;101843.19;;;9.12;100.00
48652;BME280;34442;52.362;-1.302;2023-02-13T14:36:19;101853.63;;;9.15;100.00
48652;BME280;34442;52.362;-1.302;2023-02-13T14:38:54;101847.72;;;9.11;100.00
48652;BME280;34442;52.362;-1.302;2023-02-13T14:41:44;101849.06;;;9.07;100.00
48652;BME280;34442;52.362;-1.302;2023-02-13T14:44:30;101853.09;;;9.11;100.00
48652;BME280;34442;52.362;-1.302;2023-02-13T14:46:59;101853.28;;;9.10;100.00
48652;BME280;34442;52.362;-1.302;2023-02-13T14:49:31;101846.19;;;9.09;100.00
48652;BME280;34442;52.362;-1.302;2023-02-13T14:52:04;101857.09;;;9.07;100.00
48652;BME280;34442;52.362;-1.302;2023-02-13T14:54:38;101851.75;;;9.07;100.00
48652;BME280;34442;52.362;-1.302;2023-02-13T14:57:29;101843.06;;;9.13;100.00
48652;BME280;34442;52.362;-1.302;2023-02-13T15:02:58;101832.97;;;9.07;100.00
48652;BME280;34442;52.362;-1.302;2023-02-13T15:05:31;101833.13;;;9.06;100.00
48652;BME280;34442;52.362;-1.302;2023-02-13T15:08:18;101833.66;;;9.09;100.00
48652;BME280;34442;52.362;-1.302;2023-02-13T15:10:50;101831.81;;;9.10;100.00
48652;BME280;34442;52.362;-1.302;2023-02-13T15:13:31;101835.00;;;9.13;100.00
48652;BME280;34442;52.362;-1.302;2023-02-13T15:16:07;101836.84;;;9.13;100.00
48652;BME280;34442;52.362;-1.302;2023-02-13T15:21:15;101826.94;;;9.05;100.00
48652;BME280;34442;52.362;-1.302;2023-02-13T15:23:41;101822.41;;;9.06;100.00
48652;BME280;34442;52.362;-1.302;2023-02-13T15:26:07;101827.75;;;9.06;100.00
48652;BME280;34442;52.362;-1.302;2023-02-13T15:28:33;101818.72;;;9.07;100.00
48652;BME280;34442;52.362;-1.302;2023-02-13T15:31:00;101820.56;;;9.06;100.00
48652;BME280;34442;52.362;-1.302;2023-02-13T15:33:31;101817.69;;;9.08;100.00
48652;BME280;34442;52.362;-1.302;2023-02-13T15:36:02;101824.75;;;9.09;100.00